Hlavní strana
METAR-TAF:

METAR-TAF

Letiště :

Cuenca, Ekvádor

zeměpisná šířka: 02-53-22S, zeměpisná délka: 078-59-04W, výška: 2532 m

Aktuální stav počasí

Zpráva byla vytvořena před 39 minutami, v 13:00 UTC
Severoseverovýchodní vítr 3 kt
Teplota 14°C
Vlhkost vzduchu 88%
Tlak 1029 hPa
Viditelnost 10 km a více
Skoro jasno ve výšce 1000 ft
Zataženo ve výšce 3000 ft

METAR: SECU 261300Z 03003KT 9999 FEW010 OVC030 14/12 Q1029

Čas: 08:39 (13:39 UTC)


TAF: chybějící

Stav a předpovědi počasí z více než 4 000 letišť (zprávy METAR a TAF).

Červené a žluté tečky na mapě představují dostupné meteorologické stanice.

Když kurzor umístíte na tečku, zobrazí se název stanice.

Pak kliknutím zobrazíte stav a předpověď počasí.

Chcete-li změnit mapu, kliknutím na zelené tlačítko se znaménkem +mapu přiblížíte, kliknutím na zelené tlačítko se znaménkem – mapu oddálíte a kliknutím na zelené šipky přejdete na sousední mapy.


METAR-TAF: